Terminal Aerodrome Forecast
Issued by NWS

Home | Current Version | Previous Version | Text Only | Print | Product List | Glossary On
Versions: 1 2 3 4 5 6 7 8 9 10 11 12 13 14 15 16 17 18
000
FTPA31 PHFO 291131
TAFHMK
TAF
PHMK 291131Z 2912/3012 06010KT P6SM FEW035 BKN070
     FM292100 04016G22KT P6SM FEW035 SCT070
     FM300600 04010KT P6SM FEW035 SCT070=

USA.gov is the U.S. government's official web portal to all federal, state and local government web resources and services.